createdAt,value
2018-10-19T00:01:54.733Z,28
2018-10-19T00:12:03.179Z,31
2018-10-19T00:22:13.288Z,33
2018-10-19T00:32:21.324Z,28
2018-10-19T00:42:29.390Z,31
2018-10-19T00:52:37.224Z,30
2018-10-19T01:02:46.198Z,25
2018-10-19T01:12:54.779Z,28
2018-10-19T01:23:03.998Z,31
2018-10-19T01:33:12.537Z,32
2018-10-19T01:43:18.764Z,33
2018-10-19T01:53:29.119Z,30
2018-10-19T02:03:38.410Z,29
2018-10-19T02:13:43.611Z,28
2018-10-19T02:23:52.455Z,29
2018-10-19T02:34:02.361Z,30
2018-10-19T02:44:12.517Z,28
2018-10-19T02:54:19.316Z,30
2018-10-19T03:04:28.100Z,29
2018-10-19T03:14:37.832Z,30
2018-10-19T03:24:47.161Z,32
2018-10-19T03:34:55.142Z,33
2018-10-19T03:45:04.505Z,30
2018-10-19T03:55:14.473Z,33
2018-10-19T04:05:21.853Z,27
2018-10-19T04:15:33.663Z,30
2018-10-19T04:25:42.088Z,30
2018-10-19T04:35:50.318Z,29
2018-10-19T04:45:59.277Z,27
2018-10-19T04:56:10.491Z,29
2018-10-19T04:56:55.897Z,29
2018-10-19T05:07:05.585Z,29
2018-10-19T05:17:13.605Z,30
2018-10-19T05:27:22.625Z,27
2018-10-19T05:37:30.019Z,28
2018-10-19T05:47:41.473Z,29
2018-10-19T05:57:47.518Z,27
2018-10-19T06:07:58.257Z,30
2018-10-19T06:18:05.653Z,27
2018-10-19T06:28:15.070Z,24
2018-10-19T06:38:23.047Z,23
2018-10-19T06:48:32.793Z,23
2018-10-19T06:58:41.037Z,31
2018-10-19T07:08:52.516Z,25
2018-10-19T07:19:00.114Z,24
2018-10-19T07:29:09.698Z,28
2018-10-19T07:39:16.913Z,25
2018-10-19T07:49:27.490Z,28
2018-10-19T07:59:38.861Z,28
2018-10-19T08:09:47.383Z,28
2018-10-19T08:19:56.198Z,28
2018-10-19T08:30:03.079Z,31
2018-10-19T08:40:12.807Z,28
2018-10-19T08:50:21.666Z,31
2018-10-19T09:00:32.916Z,28
2018-10-19T09:10:40.770Z,30
2018-10-19T09:20:52.977Z,33
2018-10-19T09:30:59.596Z,38
2018-10-19T09:41:09.741Z,35
2018-10-19T09:51:17.244Z,33
2018-10-19T09:56:35.455Z,29
2018-10-19T10:06:46.139Z,29
2018-10-19T10:16:56.141Z,27
2018-10-19T10:27:06.985Z,37
2018-10-19T10:37:17.096Z,33
2018-10-19T10:47:26.346Z,31
2018-10-19T10:57:33.469Z,36
2018-10-19T11:07:45.278Z,34
2018-10-19T11:17:54.259Z,34
2018-10-19T11:22:13.280Z,32
2018-10-19T11:29:25.207Z,35
2018-10-19T11:49:46.666Z,53
2018-10-19T11:59:51.911Z,39
2018-10-19T12:10:02.090Z,37
2018-10-19T12:20:13.980Z,44
2018-10-19T12:30:21.521Z,37
2018-10-19T12:33:38.235Z,37
2018-10-19T12:39:58.116Z,36
2018-10-19T12:41:12.683Z,35
2018-10-19T12:44:00.105Z,39
2018-10-19T12:48:13.675Z,36
2018-10-19T12:58:20.574Z,36
2018-10-19T13:08:31.265Z,38
2018-10-19T13:18:43.555Z,35
2018-10-19T13:28:51.018Z,37
2018-10-19T13:39:01.697Z,35
2018-10-19T13:49:11.195Z,37
2018-10-19T13:59:22.021Z,44
2018-10-19T14:09:32.746Z,43
2018-10-19T14:19:41.658Z,36
2018-10-19T14:21:54.779Z,40
2018-10-19T14:32:01.241Z,41
2018-10-19T14:42:10.392Z,47
2018-10-19T14:52:20.690Z,41
2018-10-19T15:02:28.254Z,43
2018-10-19T15:12:38.461Z,45
2018-10-19T15:22:47.889Z,76
2018-10-19T15:32:55.126Z,48
2018-10-19T15:43:03.974Z,49
2018-10-19T15:53:14.218Z,50
2018-10-19T16:01:35.166Z,54
2018-10-19T16:11:44.999Z,56
2018-10-19T16:21:53.251Z,53
2018-10-19T16:32:04.242Z,59
2018-10-19T16:42:13.200Z,59
2018-10-19T16:52:24.401Z,92
2018-10-19T17:02:29.879Z,82
2018-10-19T17:12:41.351Z,2
2018-10-19T17:22:18.450Z,64
2018-10-19T17:23:25.016Z,69
2018-10-19T17:33:34.587Z,78
2018-10-19T17:43:45.986Z,81
2018-10-19T17:53:54.435Z,77
2018-10-19T18:04:03.282Z,71
2018-10-19T18:14:12.768Z,51
2018-10-19T18:24:24.017Z,52
2018-10-19T18:34:33.312Z,51
2018-10-19T18:44:44.862Z,52
2018-10-19T18:54:50.436Z,48
2018-10-19T19:04:59.813Z,51
2018-10-19T19:15:11.118Z,51
2018-10-19T19:25:20.670Z,53
2018-10-19T19:35:27.909Z,48
2018-10-19T19:45:36.093Z,46
2018-10-19T19:55:45.481Z,1
2018-10-19T20:05:56.274Z,53
2018-10-19T20:16:06.321Z,49
2018-10-19T20:26:15.145Z,44
2018-10-19T20:36:23.492Z,47
2018-10-19T20:46:31.163Z,48
2018-10-19T20:56:41.292Z,43
2018-10-19T21:06:49.771Z,47
2018-10-19T21:16:58.579Z,45
2018-10-19T21:27:06.051Z,44
2018-10-19T21:37:14.776Z,43
2018-10-19T21:43:31.133Z,41
2018-10-19T21:53:42.931Z,41
2018-10-19T22:03:49.480Z,41
2018-10-19T22:13:57.541Z,43
2018-10-19T22:24:05.364Z,39
2018-10-19T22:28:19.369Z,41
2018-10-19T22:38:28.411Z,41
2018-10-19T22:48:37.341Z,42
2018-10-19T22:58:47.040Z,38
2018-10-19T23:08:56.030Z,36
2018-10-19T23:19:03.827Z,37
2018-10-19T23:29:12.864Z,43
2018-10-19T23:39:19.039Z,35
2018-10-19T23:49:27.644Z,36
2018-10-19T23:59:36.455Z,44
